Westchester, Florida
Current Conditions -  °F | °C
As of 8:53 AM on Sunday 25 Jan 2015 (Local Time) from KMIA Reporting Station
Few Clouds Few Clouds  
Wind Chill: 56°   Ceiling: Unl
Heat Index: 56°   Visibility: 10mi
Dew Point: 40°   Wind: 7mph
Humidity: 55%   Direction: 350°N
Pressure: 30.11"   Gusts: NA
Location:  25.7365°N, 80.3606°W
Report Text: KMIA 251353Z 35006KT 10SM FEW020 13/04 A3011 RMK AO2 SLP195 T01330044
Loading
Personal Weather Stations






























Interactive Weather Map New forecast layout! Learn more

10-Day Weather Forecast

Advertisements
Track Severe Weather on mobile